createdAt,value
2022-09-02T00:01:39.422Z,1.63
2022-09-02T00:04:14.562Z,1.70
2022-09-02T00:06:43.474Z,1.88
2022-09-02T00:09:14.593Z,1.60
2022-09-02T00:11:44.933Z,1.67
2022-09-02T00:14:18.095Z,1.45
2022-09-02T00:16:51.710Z,1.63
2022-09-02T00:19:22.886Z,1.60
2022-09-02T00:21:50.924Z,1.75
2022-09-02T00:24:18.107Z,1.75
2022-09-02T00:26:46.142Z,1.75
2022-09-02T00:29:15.352Z,1.80
2022-09-02T00:31:46.662Z,1.92
2022-09-02T00:34:14.684Z,2.00
2022-09-02T00:36:41.728Z,1.83
2022-09-02T00:39:09.530Z,2.13
2022-09-02T00:41:41.966Z,1.95
2022-09-02T00:44:14.340Z,1.95
2022-09-02T00:46:41.695Z,2.30
2022-09-02T00:49:15.079Z,2.20
2022-09-02T00:52:20.781Z,1.50
2022-09-02T00:54:55.322Z,1.83
2022-09-02T00:57:29.278Z,1.92
2022-09-02T01:00:14.882Z,1.98
2022-09-02T01:02:42.676Z,1.90
2022-09-02T01:05:14.773Z,1.80
2022-09-02T01:07:43.207Z,2.00
2022-09-02T01:10:17.163Z,1.85
2022-09-02T01:12:44.659Z,2.13
2022-09-02T01:15:13.929Z,2.08
2022-09-02T01:17:49.677Z,2.03
2022-09-02T01:20:25.384Z,1.88
2022-09-02T01:22:54.199Z,2.00
2022-09-02T01:25:33.742Z,2.15
2022-09-02T01:28:14.647Z,1.95
2022-09-02T01:30:50.014Z,2.33
2022-09-02T01:33:20.156Z,1.88
2022-09-02T01:35:50.606Z,2.20
2022-09-02T01:38:19.075Z,1.98
2022-09-02T01:40:46.685Z,1.33
2022-09-02T01:43:21.629Z,2.28
2022-09-02T01:45:53.496Z,2.17
2022-09-02T01:48:22.744Z,1.73
2022-09-02T01:51:00.239Z,2.05
2022-09-02T01:53:29.587Z,1.92
2022-09-02T01:55:57.679Z,1.75
2022-09-02T01:58:24.979Z,1.70
2022-09-02T02:00:52.795Z,1.65
2022-09-02T02:03:20.587Z,2.05
2022-09-02T02:05:48.106Z,2.08
2022-09-02T02:08:17.318Z,1.70
2022-09-02T02:10:45.907Z,1.70
2022-09-02T02:13:13.736Z,2.10
2022-09-02T02:15:45.493Z,1.90
2022-09-02T02:18:12.892Z,1.88
2022-09-02T02:20:39.763Z,2.13
2022-09-02T02:23:10.123Z,1.80
2022-09-02T02:25:39.161Z,1.90
2022-09-02T02:28:06.431Z,2.25
2022-09-02T02:30:33.804Z,1.60
2022-09-02T02:33:01.952Z,1.77
2022-09-02T02:35:29.108Z,1.73
2022-09-02T02:37:56.669Z,1.85
2022-09-02T02:40:28.632Z,1.85
2022-09-02T02:42:55.631Z,2.05
2022-09-02T02:45:25.783Z,2.33
2022-09-02T02:47:53.716Z,1.90
2022-09-02T02:50:23.664Z,2.10
2022-09-02T02:52:54.814Z,2.08
2022-09-02T02:55:25.677Z,2.22
2022-09-02T02:57:52.935Z,1.90
2022-09-02T03:00:32.200Z,2.20
2022-09-02T03:03:09.306Z,2.30
2022-09-02T03:05:39.849Z,2.50
2022-09-02T03:08:10.306Z,2.25
2022-09-02T03:10:41.131Z,1.98
2022-09-02T03:13:10.603Z,2.05
2022-09-02T03:15:40.177Z,2.20
2022-09-02T03:18:07.994Z,2.10
2022-09-02T03:20:35.995Z,2.15
2022-09-02T03:23:05.672Z,2.28
2022-09-02T03:25:35.962Z,2.28
2022-09-02T03:28:11.142Z,2.00
2022-09-02T03:30:42.029Z,2.47
2022-09-02T03:33:09.633Z,2.20
2022-09-02T03:35:42.512Z,2.50
2022-09-02T03:38:12.318Z,2.58
2022-09-02T03:40:40.152Z,2.20
2022-09-02T03:43:08.792Z,2.20
2022-09-02T03:45:38.754Z,2.85
2022-09-02T03:48:06.370Z,2.15
2022-09-02T03:50:41.661Z,2.70
2022-09-02T03:53:19.508Z,2.72
2022-09-02T03:55:49.507Z,2.33
2022-09-02T03:58:19.244Z,2.08
2022-09-02T04:00:52.855Z,2.42
2022-09-02T04:03:22.069Z,2.95
2022-09-02T04:05:52.010Z,2.60
2022-09-02T04:08:21.396Z,2.97
2022-09-02T04:10:49.762Z,2.03
2022-09-02T04:13:17.407Z,2.30
2022-09-02T04:15:48.022Z,2.30
2022-09-02T04:18:18.145Z,2.20
2022-09-02T04:20:46.261Z,1.90
2022-09-02T04:23:14.707Z,2.38
2022-09-02T04:25:44.447Z,2.22
2022-09-02T04:28:13.090Z,2.35
2022-09-02T04:30:42.250Z,2.35
2022-09-02T04:33:11.343Z,2.67
2022-09-02T04:35:44.302Z,2.58
2022-09-02T04:38:12.265Z,2.83
2022-09-02T04:40:42.819Z,2.97
2022-09-02T04:43:12.189Z,3.03
2022-09-02T04:45:42.580Z,2.40
2022-09-02T04:48:10.828Z,2.83
2022-09-02T04:50:41.061Z,2.90
2022-09-02T04:53:08.802Z,3.15
2022-09-02T04:55:41.091Z,2.97
2022-09-02T04:58:11.255Z,4.57
2022-09-02T05:00:40.136Z,3.70
2022-09-02T05:03:12.135Z,2.95
2022-09-02T05:05:41.179Z,2.80
2022-09-02T05:08:13.288Z,2.92
2022-09-02T05:10:41.769Z,3.88
2022-09-02T05:13:08.809Z,3.30
2022-09-02T05:15:40.839Z,3.67
2022-09-02T05:18:08.515Z,3.38
2022-09-02T05:20:39.497Z,2.85
2022-09-02T05:23:07.346Z,3.30
2022-09-02T05:25:34.763Z,8.00
2022-09-02T05:28:01.736Z,5.28
2022-09-02T05:30:28.734Z,4.15
2022-09-02T05:32:56.264Z,3.85
2022-09-02T05:35:23.967Z,4.38
2022-09-02T05:37:53.243Z,3.53
2022-09-02T05:40:22.629Z,3.42
2022-09-02T05:42:50.763Z,3.50
2022-09-02T05:45:18.566Z,3.78
2022-09-02T05:47:47.438Z,4.10
2022-09-02T05:50:16.490Z,3.53
2022-09-02T05:52:45.130Z,3.95
2022-09-02T05:55:12.212Z,4.00
2022-09-02T05:57:40.206Z,3.60
2022-09-02T06:00:10.322Z,3.75
2022-09-02T06:02:43.841Z,3.85
2022-09-02T06:05:25.582Z,3.70
2022-09-02T06:08:00.335Z,4.05
2022-09-02T06:10:27.575Z,4.13
2022-09-02T06:12:54.686Z,3.45
2022-09-02T06:15:30.875Z,3.42
2022-09-02T06:17:59.904Z,3.17
2022-09-02T06:20:30.262Z,3.90
2022-09-02T06:22:57.273Z,3.63
2022-09-02T06:25:24.474Z,2.80
2022-09-02T06:27:52.140Z,3.15
2022-09-02T06:30:19.235Z,2.95
2022-09-02T06:32:50.623Z,2.78
2022-09-02T06:35:18.847Z,2.90
2022-09-02T06:37:45.932Z,3.20
2022-09-02T06:40:14.720Z,3.03
2022-09-02T06:42:42.485Z,2.92
2022-09-02T06:45:26.474Z,2.40
2022-09-02T06:47:55.588Z,2.80
2022-09-02T06:50:23.065Z,2.70
2022-09-02T06:52:50.476Z,2.67
2022-09-02T06:55:18.488Z,1.98
2022-09-02T06:57:45.831Z,2.50
2022-09-02T07:00:14.541Z,2.40
2022-09-02T07:02:43.976Z,2.25
2022-09-02T07:05:14.944Z,2.22
2022-09-02T07:07:45.936Z,2.28
2022-09-02T07:10:15.410Z,2.03
2022-09-02T07:12:47.752Z,1.85
2022-09-02T07:15:16.985Z,1.75
2022-09-02T07:17:44.961Z,1.40
2022-09-02T07:20:17.672Z,1.55
2022-09-02T07:25:23.083Z,1.50
2022-09-02T07:27:52.151Z,1.40
2022-09-02T07:30:20.200Z,1.35
2022-09-02T07:32:52.697Z,1.52
2022-09-02T07:35:22.514Z,1.83
2022-09-02T07:37:50.947Z,1.13
2022-09-02T07:40:21.227Z,1.15
2022-09-02T07:42:48.432Z,1.30
2022-09-02T07:45:16.270Z,1.10
2022-09-02T07:47:45.221Z,1.17
2022-09-02T07:50:19.664Z,1.30
2022-09-02T07:52:58.243Z,0.95
2022-09-02T07:55:29.331Z,1.10
2022-09-02T07:57:56.483Z,1.10
2022-09-02T08:00:27.604Z,1.02
2022-09-02T08:02:56.671Z,1.20
2022-09-02T08:05:31.428Z,1.20
2022-09-02T08:08:00.343Z,1.10
2022-09-02T08:10:29.991Z,0.90
2022-09-02T08:13:00.875Z,1.10
2022-09-02T08:15:30.147Z,0.85
2022-09-02T08:17:58.510Z,1.05
2022-09-02T08:20:26.193Z,0.90
2022-09-02T08:23:01.077Z,0.55
2022-09-02T08:25:37.993Z,0.70
2022-09-02T08:28:05.060Z,0.80
2022-09-02T08:30:32.390Z,0.95
2022-09-02T08:32:59.696Z,1.02
2022-09-02T08:35:26.951Z,0.60
2022-09-02T08:37:53.768Z,0.70
2022-09-02T08:40:24.975Z,0.40
2022-09-02T08:42:54.810Z,0.52
2022-09-02T08:45:32.033Z,0.47
2022-09-02T08:48:23.028Z,0.52
2022-09-02T08:51:00.892Z,0.50
2022-09-02T08:53:48.120Z,0.47
2022-09-02T08:56:18.493Z,0.60
2022-09-02T08:58:53.020Z,0.40
2022-09-02T09:01:48.797Z,0.60
2022-09-02T09:05:08.190Z,0.57
2022-09-02T09:07:56.485Z,0.60
2022-09-02T09:10:43.605Z,0.52
2022-09-02T09:13:50.858Z,0.50
2022-09-02T09:16:55.617Z,0.30
2022-09-02T09:19:43.562Z,0.40
2022-09-02T09:22:17.818Z,0.45
2022-09-02T09:24:50.756Z,0.30
2022-09-02T09:27:23.056Z,0.38
2022-09-02T09:29:51.820Z,0.40
2022-09-02T09:32:35.867Z,0.40
2022-09-02T09:35:08.786Z,0.50
2022-09-02T09:37:52.452Z,0.40
2022-09-02T09:40:25.692Z,0.40
2022-09-02T09:45:47.987Z,0.30
2022-09-02T09:48:30.644Z,0.35
2022-09-02T09:50:58.316Z,0.40
2022-09-02T09:53:33.154Z,0.40
2022-09-02T09:58:54.356Z,0.40
2022-09-02T10:01:28.248Z,0.50
2022-09-02T10:04:44.383Z,0.70
2022-09-02T10:07:15.325Z,0.60
2022-09-02T10:09:42.402Z,0.45
2022-09-02T10:12:13.142Z,0.43
2022-09-02T10:14:48.457Z,0.43
2022-09-02T10:17:40.155Z,0.30
2022-09-02T10:20:48.421Z,0.57
2022-09-02T10:23:26.800Z,0.43
2022-09-02T10:26:10.712Z,0.60
2022-09-02T10:29:04.245Z,0.95
2022-09-02T10:31:52.986Z,0.90
2022-09-02T10:35:13.670Z,0.40
2022-09-02T10:37:58.505Z,1.00
2022-09-02T10:43:47.913Z,0.30
2022-09-02T10:46:24.604Z,0.40
2022-09-02T10:49:13.726Z,0.50
2022-09-02T10:52:24.707Z,0.70
2022-09-02T10:55:17.670Z,0.57
2022-09-02T10:58:03.016Z,0.85
2022-09-02T11:00:32.550Z,0.55
2022-09-02T11:03:24.681Z,0.50
2022-09-02T11:06:40.327Z,0.82
2022-09-02T11:09:37.117Z,0.55
2022-09-02T11:12:18.648Z,0.50
2022-09-02T11:15:16.023Z,0.40
2022-09-02T11:18:07.931Z,0.50
2022-09-02T11:21:00.907Z,0.50
2022-09-02T11:23:41.601Z,0.55
2022-09-02T11:26:18.960Z,0.50
2022-09-02T11:29:07.034Z,0.50
2022-09-02T11:32:02.057Z,0.40
2022-09-02T11:34:37.754Z,0.50
2022-09-02T11:37:10.712Z,0.40
2022-09-02T11:40:02.369Z,0.40
2022-09-02T11:43:14.646Z,0.40
2022-09-02T11:46:26.001Z,0.38
2022-09-02T11:49:18.313Z,0.70
2022-09-02T11:52:19.597Z,0.50
2022-09-02T11:54:56.022Z,0.60
2022-09-02T11:57:26.537Z,0.45
2022-09-02T11:59:53.341Z,0.50
2022-09-02T12:02:44.837Z,0.50
2022-09-02T12:05:39.781Z,0.30
2022-09-02T12:08:36.705Z,0.40
2022-09-02T12:11:06.853Z,0.50
2022-09-02T12:16:35.217Z,0.80
2022-09-02T12:19:07.306Z,0.52
2022-09-02T12:21:35.962Z,0.40
2022-09-02T12:24:12.332Z,0.50
2022-09-02T12:26:39.111Z,0.30
2022-09-02T12:29:33.238Z,0.40
2022-09-02T12:32:00.935Z,0.50
2022-09-02T12:34:28.639Z,0.50
2022-09-02T12:37:02.625Z,0.32
2022-09-02T12:39:30.415Z,0.70
2022-09-02T12:42:09.091Z,0.60
2022-09-02T12:44:49.209Z,0.50
2022-09-02T12:47:53.257Z,0.47
2022-09-02T12:50:51.830Z,0.40
2022-09-02T12:53:43.965Z,0.60
2022-09-02T12:56:13.491Z,0.50
2022-09-02T12:58:53.276Z,0.40
2022-09-02T13:01:26.657Z,0.77
2022-09-02T13:04:38.755Z,0.60
2022-09-02T13:08:02.452Z,0.50
2022-09-02T13:10:53.762Z,0.50
2022-09-02T13:14:06.821Z,0.60
2022-09-02T13:16:41.806Z,0.52
2022-09-02T13:19:50.048Z,0.40
2022-09-02T13:22:39.095Z,0.40
2022-09-02T13:25:19.719Z,0.60
2022-09-02T13:28:35.494Z,0.60
2022-09-02T13:31:06.945Z,0.70
2022-09-02T13:33:34.540Z,0.57
2022-09-02T13:36:01.675Z,0.70
2022-09-02T13:38:31.182Z,0.50
2022-09-02T13:40:58.184Z,0.60
2022-09-02T13:43:27.160Z,0.50
2022-09-02T13:46:01.115Z,0.40
2022-09-02T13:48:39.703Z,0.57
2022-09-02T13:51:14.420Z,0.50
2022-09-02T13:54:05.553Z,0.30
2022-09-02T13:56:34.134Z,0.50
2022-09-02T13:59:01.345Z,0.32
2022-09-02T14:01:36.950Z,0.40
2022-09-02T14:04:11.744Z,0.45
2022-09-02T14:06:45.442Z,0.55
2022-09-02T14:09:35.504Z,0.40
2022-09-02T14:12:06.248Z,0.55
2022-09-02T14:14:34.575Z,0.40
2022-09-02T14:17:26.710Z,0.40
2022-09-02T14:20:15.061Z,0.30
2022-09-02T14:22:42.516Z,0.47
2022-09-02T14:25:15.876Z,0.40
2022-09-02T14:27:56.871Z,0.35
2022-09-02T14:30:38.424Z,0.40
2022-09-02T14:33:44.273Z,0.57
2022-09-02T14:36:21.249Z,0.73
2022-09-02T14:38:48.554Z,0.50
2022-09-02T14:41:18.482Z,0.40
2022-09-02T14:43:57.810Z,0.38
2022-09-02T14:46:45.271Z,0.60
2022-09-02T14:49:29.633Z,0.40
2022-09-02T14:52:00.307Z,0.40
2022-09-02T14:54:41.726Z,0.60
2022-09-02T14:57:38.923Z,0.50
2022-09-02T15:00:11.007Z,0.55
2022-09-02T15:02:47.538Z,0.77
2022-09-02T15:05:15.278Z,0.60
2022-09-02T15:07:42.814Z,0.50
2022-09-02T15:10:10.014Z,0.40
2022-09-02T15:12:50.292Z,0.43
2022-09-02T15:15:17.934Z,0.50
2022-09-02T15:17:44.799Z,0.45
2022-09-02T15:20:11.865Z,0.57
2022-09-02T15:22:39.018Z,0.70
2022-09-02T15:25:08.512Z,0.55
2022-09-02T15:27:37.007Z,0.50
2022-09-02T15:30:06.464Z,0.70
2022-09-02T15:32:33.422Z,0.55
2022-09-02T15:35:00.239Z,0.65
2022-09-02T15:37:27.875Z,0.50
2022-09-02T15:39:54.753Z,0.60
2022-09-02T15:42:22.198Z,0.60
2022-09-02T15:44:49.038Z,0.57
2022-09-02T15:47:15.902Z,0.50
2022-09-02T15:49:42.921Z,0.30
2022-09-02T15:52:10.053Z,0.60
2022-09-02T15:54:36.924Z,0.60
2022-09-02T15:57:04.129Z,0.70
2022-09-02T15:59:31.010Z,0.45
2022-09-02T16:01:58.758Z,0.40
2022-09-02T16:04:27.391Z,0.30
2022-09-02T16:06:54.676Z,0.70
2022-09-02T16:09:22.211Z,0.43
2022-09-02T16:11:53.620Z,0.50
2022-09-02T16:14:23.379Z,0.80
2022-09-02T16:16:52.542Z,0.70
2022-09-02T16:19:23.692Z,0.98
2022-09-02T16:21:52.050Z,0.47
2022-09-02T16:24:22.780Z,0.55
2022-09-02T16:26:51.187Z,0.60
2022-09-02T16:29:18.385Z,0.50
2022-09-02T16:34:35.538Z,0.50
2022-09-02T16:37:02.417Z,0.60
2022-09-02T16:39:29.278Z,0.55
2022-09-02T16:41:57.051Z,0.70
2022-09-02T16:44:25.922Z,0.80
2022-09-02T16:46:53.660Z,0.70
2022-09-02T16:49:22.001Z,0.90
2022-09-02T16:51:57.809Z,0.68
2022-09-02T16:54:32.429Z,0.60
2022-09-02T16:57:01.650Z,0.73
2022-09-02T16:59:29.178Z,0.75
2022-09-02T17:01:56.079Z,0.52
2022-09-02T17:04:23.217Z,0.60
2022-09-02T17:06:50.200Z,0.52
2022-09-02T17:09:17.049Z,0.60
2022-09-02T17:11:45.170Z,0.57
2022-09-02T17:14:16.205Z,0.50
2022-09-02T17:16:46.838Z,0.68
2022-09-02T17:19:20.766Z,0.40
2022-09-02T17:21:54.132Z,0.70
2022-09-02T17:24:27.678Z,0.90
2022-09-02T17:26:55.838Z,0.88
2022-09-02T17:29:48.189Z,0.70
2022-09-02T17:32:13.775Z,0.70
2022-09-02T17:34:40.901Z,0.65
2022-09-02T17:37:08.062Z,0.68
2022-09-02T17:39:34.994Z,0.50
2022-09-02T17:42:05.119Z,0.50
2022-09-02T17:44:38.256Z,0.80
2022-09-02T17:47:22.805Z,0.50
2022-09-02T17:49:50.151Z,0.50
2022-09-02T17:52:21.789Z,0.88
2022-09-02T17:54:51.708Z,0.50
2022-09-02T17:57:42.639Z,0.60
2022-09-02T18:00:17.698Z,0.52
2022-09-02T18:03:16.996Z,0.70
2022-09-02T18:06:15.796Z,0.70
2022-09-02T18:08:56.471Z,0.45
2022-09-02T18:11:24.366Z,0.52
2022-09-02T18:14:31.619Z,0.63
2022-09-02T18:17:25.865Z,0.60
2022-09-02T18:20:41.667Z,0.45
2022-09-02T18:23:41.609Z,0.40
2022-09-02T18:26:29.767Z,0.60
2022-09-02T18:29:39.429Z,0.70
2022-09-02T18:32:42.002Z,0.60
2022-09-02T18:35:41.244Z,0.80
2022-09-02T18:38:29.279Z,0.63
2022-09-02T18:41:36.209Z,0.52
2022-09-02T18:44:16.419Z,0.52
2022-09-02T18:47:05.568Z,0.60
2022-09-02T18:49:37.066Z,0.70
2022-09-02T18:52:10.335Z,0.85
2022-09-02T18:54:48.107Z,1.00
2022-09-02T18:57:15.358Z,1.00
2022-09-02T19:00:02.565Z,0.85
2022-09-02T19:02:38.578Z,0.70
2022-09-02T19:05:10.414Z,0.65
2022-09-02T19:07:56.725Z,0.88
2022-09-02T19:10:23.813Z,1.00
2022-09-02T19:12:50.775Z,0.70
2022-09-02T19:15:18.597Z,0.60
2022-09-02T19:17:45.555Z,0.85
2022-09-02T19:20:12.599Z,0.90
2022-09-02T19:22:47.954Z,0.80
2022-09-02T19:25:26.725Z,0.60
2022-09-02T19:27:57.057Z,0.82
2022-09-02T19:30:24.581Z,0.80
2022-09-02T19:33:00.302Z,1.10
2022-09-02T19:35:30.817Z,0.77
2022-09-02T19:37:57.746Z,0.68
2022-09-02T19:40:33.145Z,0.82
2022-09-02T19:43:07.401Z,0.90
2022-09-02T19:45:39.072Z,0.90
2022-09-02T19:48:11.515Z,0.60
2022-09-02T19:50:45.634Z,0.73
2022-09-02T19:53:25.599Z,0.70
2022-09-02T19:55:52.489Z,1.00
2022-09-02T19:58:19.587Z,0.70
2022-09-02T20:00:47.758Z,0.80
2022-09-02T20:03:15.982Z,0.77
2022-09-02T20:05:43.030Z,1.00
2022-09-02T20:08:10.084Z,0.60
2022-09-02T20:10:38.736Z,0.63
2022-09-02T20:13:06.778Z,0.80
2022-09-02T20:15:39.301Z,0.80
2022-09-02T20:18:15.968Z,0.60
2022-09-02T20:20:49.239Z,0.60
2022-09-02T20:23:19.421Z,0.60
2022-09-02T20:26:23.937Z,0.70
2022-09-02T20:29:15.109Z,1.35
2022-09-02T20:31:55.746Z,0.88
2022-09-02T20:34:44.556Z,0.90
2022-09-02T20:37:58.302Z,0.70
2022-09-02T20:40:48.468Z,0.50
2022-09-02T20:43:24.100Z,1.08
2022-09-02T20:46:01.828Z,0.80
2022-09-02T20:49:14.077Z,0.80
2022-09-02T20:52:18.323Z,1.00
2022-09-02T20:55:07.411Z,0.80
2022-09-02T20:58:15.265Z,0.82
2022-09-02T21:00:56.950Z,0.93
2022-09-02T21:03:27.017Z,0.90
2022-09-02T21:05:58.330Z,0.70
2022-09-02T21:08:35.369Z,1.00
2022-09-02T21:11:12.949Z,1.25
2022-09-02T21:13:59.960Z,0.70
2022-09-02T21:16:42.826Z,0.88
2022-09-02T21:19:41.557Z,0.70
2022-09-02T21:22:21.730Z,1.00
2022-09-02T21:24:59.075Z,0.90
2022-09-02T21:27:45.169Z,0.80
2022-09-02T21:30:19.820Z,1.08
2022-09-02T21:32:58.372Z,0.98
2022-09-02T21:35:36.107Z,1.00
2022-09-02T21:38:30.969Z,0.85
2022-09-02T21:41:11.177Z,0.70
2022-09-02T21:43:59.136Z,0.98
2022-09-02T21:47:01.184Z,0.88
2022-09-02T21:49:50.057Z,0.93
2022-09-02T21:53:09.516Z,1.02
2022-09-02T21:55:57.294Z,1.08
2022-09-02T21:58:36.062Z,1.10
2022-09-02T22:01:42.176Z,1.10
2022-09-02T22:04:35.487Z,0.90
2022-09-02T22:07:20.009Z,0.93
2022-09-02T22:09:59.181Z,1.35
2022-09-02T22:12:26.323Z,1.30
2022-09-02T22:15:11.999Z,1.08
2022-09-02T22:17:51.313Z,1.13
2022-09-02T22:20:31.199Z,1.05
2022-09-02T22:23:06.519Z,1.30
2022-09-02T22:25:36.011Z,1.48
2022-09-02T22:28:17.410Z,1.60
2022-09-02T22:30:56.625Z,1.67
2022-09-02T22:33:33.942Z,1.50
2022-09-02T22:36:18.755Z,1.45
2022-09-02T22:38:49.701Z,1.50
2022-09-02T22:41:31.006Z,1.38
2022-09-02T22:44:21.589Z,1.75
2022-09-02T22:47:22.087Z,1.58
2022-09-02T22:50:16.569Z,2.53
2022-09-02T22:52:49.253Z,2.05
2022-09-02T22:55:32.988Z,2.00
2022-09-02T22:58:23.300Z,2.20
2022-09-02T23:01:20.295Z,2.10
2022-09-02T23:04:27.500Z,1.80
2022-09-02T23:07:01.655Z,1.50
2022-09-02T23:09:28.733Z,1.70
2022-09-02T23:12:34.129Z,1.50
2022-09-02T23:15:29.317Z,1.65
2022-09-02T23:18:29.431Z,1.67
2022-09-02T23:22:27.034Z,1.50
2022-09-02T23:25:47.584Z,1.48
2022-09-02T23:28:20.813Z,1.27
2022-09-02T23:31:31.052Z,1.60
2022-09-02T23:34:16.136Z,1.58
2022-09-02T23:37:32.289Z,1.30
2022-09-02T23:40:13.856Z,1.30
2022-09-02T23:42:41.035Z,1.30
2022-09-02T23:45:19.056Z,0.95
2022-09-02T23:48:15.501Z,1.10
2022-09-02T23:51:39.797Z,1.00
2022-09-02T23:54:54.712Z,1.00
2022-09-02T23:57:46.116Z,1.42
